Webcam Flughafen St.Gallen-Altenrhein

Live-Bilder und Zeitraffer LSZR / ACH.

 

Live aus Altenrhein
LIVE
LSZR 111250Z 06003KT 360V110 CAVOK 28/18 Q1017 NOSIG RMK I
Zeitraffer heute
2020-08-11 00:14:40
LSZR 102150Z AUTO 27004KT 230V320 CAVOK 26/15 Q1016